sensor_id;sensor_type;location;lat;lon;timestamp;P1;P2;P0
69123;PMS5003;56232;53.384;-2.732;2023-04-15T00:02:15;11;11;
69123;PMS5003;56232;53.384;-2.732;2023-04-15T00:04:40;14;10;
69123;PMS5003;56232;53.384;-2.732;2023-04-15T00:07:06;10;9;
69123;PMS5003;56232;53.384;-2.732;2023-04-15T00:09:32;11;10;
69123;PMS5003;56232;53.384;-2.732;2023-04-15T00:11:58;10;10;
69123;PMS5003;56232;53.384;-2.732;2023-04-15T00:14:24;7;7;
69123;PMS5003;56232;53.384;-2.732;2023-04-15T00:16:49;10;10;
69123;PMS5003;56232;53.384;-2.732;2023-04-15T00:19:14;10;9;
69123;PMS5003;56232;53.384;-2.732;2023-04-15T00:21:40;11;10;
69123;PMS5003;56232;53.384;-2.732;2023-04-15T00:24:06;8;8;
69123;PMS5003;56232;53.384;-2.732;2023-04-15T00:26:31;11;9;
69123;PMS5003;56232;53.384;-2.732;2023-04-15T00:28:57;6;6;
69123;PMS5003;56232;53.384;-2.732;2023-04-15T00:31:22;12;10;
69123;PMS5003;56232;53.384;-2.732;2023-04-15T00:33:48;12;12;
69123;PMS5003;56232;53.384;-2.732;2023-04-15T00:36:13;10;10;
69123;PMS5003;56232;53.384;-2.732;2023-04-15T00:38:39;8;8;
69123;PMS5003;56232;53.384;-2.732;2023-04-15T00:41:04;9;8;
69123;PMS5003;56232;53.384;-2.732;2023-04-15T00:43:29;11;9;
69123;PMS5003;56232;53.384;-2.732;2023-04-15T00:45:55;10;10;
69123;PMS5003;56232;53.384;-2.732;2023-04-15T00:48:21;9;9;
69123;PMS5003;56232;53.384;-2.732;2023-04-15T00:50:46;8;8;
69123;PMS5003;56232;53.384;-2.732;2023-04-15T00:53:12;8;7;
69123;PMS5003;56232;53.384;-2.732;2023-04-15T00:55:37;9;8;
69123;PMS5003;56232;53.384;-2.732;2023-04-15T00:58:02;7;7;
69123;PMS5003;56232;53.384;-2.732;2023-04-15T01:00:28;10;10;
69123;PMS5003;56232;53.384;-2.732;2023-04-15T01:02:54;7;7;
69123;PMS5003;56232;53.384;-2.732;2023-04-15T01:05:19;7;6;
69123;PMS5003;56232;53.384;-2.732;2023-04-15T01:07:45;8;8;
69123;PMS5003;56232;53.384;-2.732;2023-04-15T01:10:10;9;9;
69123;PMS5003;56232;53.384;-2.732;2023-04-15T01:12:36;7;7;
69123;PMS5003;56232;53.384;-2.732;2023-04-15T01:15:01;13;12;
69123;PMS5003;56232;53.384;-2.732;2023-04-15T01:17:26;12;12;
69123;PMS5003;56232;53.384;-2.732;2023-04-15T01:19:51;13;13;
69123;PMS5003;56232;53.384;-2.732;2023-04-15T01:22:17;10;10;
69123;PMS5003;56232;53.384;-2.732;2023-04-15T01:24:43;16;15;
69123;PMS5003;56232;53.384;-2.732;2023-04-15T01:27:08;15;15;
69123;PMS5003;56232;53.384;-2.732;2023-04-15T01:29:36;13;12;
69123;PMS5003;56232;53.384;-2.732;2023-04-15T01:31:59;12;10;
69123;PMS5003;56232;53.384;-2.732;2023-04-15T01:34:25;14;13;
69123;PMS5003;56232;53.384;-2.732;2023-04-15T01:36:50;15;15;
69123;PMS5003;56232;53.384;-2.732;2023-04-15T01:39:16;21;18;
69123;PMS5003;56232;53.384;-2.732;2023-04-15T01:41:41;20;19;
69123;PMS5003;56232;53.384;-2.732;2023-04-15T01:44:07;33;27;
69123;PMS5003;56232;53.384;-2.732;2023-04-15T01:46:32;25;25;
69123;PMS5003;56232;53.384;-2.732;2023-04-15T01:48:58;27;26;
69123;PMS5003;56232;53.384;-2.732;2023-04-15T01:51:23;32;30;
69123;PMS5003;56232;53.384;-2.732;2023-04-15T01:53:48;37;32;
69123;PMS5003;56232;53.384;-2.732;2023-04-15T01:56:13;33;28;
69123;PMS5003;56232;53.384;-2.732;2023-04-15T01:58:39;27;26;
69123;PMS5003;56232;53.384;-2.732;2023-04-15T02:01:04;35;32;
69123;PMS5003;56232;53.384;-2.732;2023-04-15T02:03:30;30;26;
69123;PMS5003;56232;53.384;-2.732;2023-04-15T02:05:56;33;31;
69123;PMS5003;56232;53.384;-2.732;2023-04-15T02:08:21;26;25;
69123;PMS5003;56232;53.384;-2.732;2023-04-15T02:10:46;37;31;
69123;PMS5003;56232;53.384;-2.732;2023-04-15T02:13:11;32;29;
69123;PMS5003;56232;53.384;-2.732;2023-04-15T02:15:37;32;29;
69123;PMS5003;56232;53.384;-2.732;2023-04-15T02:18:03;26;26;
69123;PMS5003;56232;53.384;-2.732;2023-04-15T02:20:29;24;24;
69123;PMS5003;56232;53.384;-2.732;2023-04-15T02:22:54;30;28;
69123;PMS5003;56232;53.384;-2.732;2023-04-15T02:25:20;31;29;
69123;PMS5003;56232;53.384;-2.732;2023-04-15T02:27:45;23;23;
69123;PMS5003;56232;53.384;-2.732;2023-04-15T02:30:10;27;27;
69123;PMS5003;56232;53.384;-2.732;2023-04-15T02:32:36;22;22;
69123;PMS5003;56232;53.384;-2.732;2023-04-15T02:35:02;23;21;
69123;PMS5003;56232;53.384;-2.732;2023-04-15T02:37:27;28;27;
69123;PMS5003;56232;53.384;-2.732;2023-04-15T02:39:52;27;27;
69123;PMS5003;56232;53.384;-2.732;2023-04-15T02:42:18;24;24;
69123;PMS5003;56232;53.384;-2.732;2023-04-15T02:44:44;24;23;
69123;PMS5003;56232;53.384;-2.732;2023-04-15T02:47:10;25;24;
69123;PMS5003;56232;53.384;-2.732;2023-04-15T02:49:35;27;27;
69123;PMS5003;56232;53.384;-2.732;2023-04-15T02:52:00;28;27;
69123;PMS5003;56232;53.384;-2.732;2023-04-15T02:54:25;29;28;
69123;PMS5003;56232;53.384;-2.732;2023-04-15T02:56:51;27;26;
69123;PMS5003;56232;53.384;-2.732;2023-04-15T02:59:17;30;29;
69123;PMS5003;56232;53.384;-2.732;2023-04-15T03:01:42;28;27;
69123;PMS5003;56232;53.384;-2.732;2023-04-15T03:04:08;35;32;
69123;PMS5003;56232;53.384;-2.732;2023-04-15T03:06:32;40;35;
69123;PMS5003;56232;53.384;-2.732;2023-04-15T03:08:57;34;33;
69123;PMS5003;56232;53.384;-2.732;2023-04-15T03:11:22;33;33;
69123;PMS5003;56232;53.384;-2.732;2023-04-15T03:13:48;34;32;
69123;PMS5003;56232;53.384;-2.732;2023-04-15T03:16:13;41;35;
69123;PMS5003;56232;53.384;-2.732;2023-04-15T03:18:38;40;36;
69123;PMS5003;56232;53.384;-2.732;2023-04-15T03:21:04;35;32;
69123;PMS5003;56232;53.384;-2.732;2023-04-15T03:23:29;41;33;
69123;PMS5003;56232;53.384;-2.732;2023-04-15T03:25:54;34;32;
69123;PMS5003;56232;53.384;-2.732;2023-04-15T03:28:20;41;30;
69123;PMS5003;56232;53.384;-2.732;2023-04-15T03:30:45;37;33;
69123;PMS5003;56232;53.384;-2.732;2023-04-15T03:33:11;34;30;
69123;PMS5003;56232;53.384;-2.732;2023-04-15T03:35:36;31;26;
69123;PMS5003;56232;53.384;-2.732;2023-04-15T03:38:01;33;30;
69123;PMS5003;56232;53.384;-2.732;2023-04-15T03:40:27;26;26;
69123;PMS5003;56232;53.384;-2.732;2023-04-15T03:42:52;36;31;
69123;PMS5003;56232;53.384;-2.732;2023-04-15T03:45:18;22;22;
69123;PMS5003;56232;53.384;-2.732;2023-04-15T03:47:43;29;27;
69123;PMS5003;56232;53.384;-2.732;2023-04-15T03:50:09;26;26;
69123;PMS5003;56232;53.384;-2.732;2023-04-15T03:52:34;32;29;
69123;PMS5003;56232;53.384;-2.732;2023-04-15T03:54:59;25;25;
69123;PMS5003;56232;53.384;-2.732;2023-04-15T03:57:24;34;31;
69123;PMS5003;56232;53.384;-2.732;2023-04-15T03:59:50;29;29;
69123;PMS5003;56232;53.384;-2.732;2023-04-15T04:02:15;31;29;
69123;PMS5003;56232;53.384;-2.732;2023-04-15T04:04:40;30;29;
69123;PMS5003;56232;53.384;-2.732;2023-04-15T04:07:05;31;28;
69123;PMS5003;56232;53.384;-2.732;2023-04-15T04:09:30;30;29;
69123;PMS5003;56232;53.384;-2.732;2023-04-15T04:11:56;32;30;
69123;PMS5003;56232;53.384;-2.732;2023-04-15T04:14:21;37;32;
69123;PMS5003;56232;53.384;-2.732;2023-04-15T04:16:46;42;38;
69123;PMS5003;56232;53.384;-2.732;2023-04-15T04:19:12;39;35;
69123;PMS5003;56232;53.384;-2.732;2023-04-15T04:21:37;35;33;
69123;PMS5003;56232;53.384;-2.732;2023-04-15T04:24:03;39;32;
69123;PMS5003;56232;53.384;-2.732;2023-04-15T04:26:28;37;32;
69123;PMS5003;56232;53.384;-2.732;2023-04-15T04:28:53;35;33;
69123;PMS5003;56232;53.384;-2.732;2023-04-15T04:31:19;34;34;
69123;PMS5003;56232;53.384;-2.732;2023-04-15T04:33:44;39;34;
69123;PMS5003;56232;53.384;-2.732;2023-04-15T04:36:10;32;30;
69123;PMS5003;56232;53.384;-2.732;2023-04-15T04:38:34;43;39;
69123;PMS5003;56232;53.384;-2.732;2023-04-15T04:41:00;38;35;
69123;PMS5003;56232;53.384;-2.732;2023-04-15T04:43:26;43;35;
69123;PMS5003;56232;53.384;-2.732;2023-04-15T04:45:51;35;34;
69123;PMS5003;56232;53.384;-2.732;2023-04-15T04:48:16;42;40;
69123;PMS5003;56232;53.384;-2.732;2023-04-15T04:50:41;38;37;
69123;PMS5003;56232;53.384;-2.732;2023-04-15T04:53:07;40;37;
69123;PMS5003;56232;53.384;-2.732;2023-04-15T04:55:32;46;39;
69123;PMS5003;56232;53.384;-2.732;2023-04-15T04:57:58;46;42;
69123;PMS5003;56232;53.384;-2.732;2023-04-15T05:00:23;44;39;
69123;PMS5003;56232;53.384;-2.732;2023-04-15T05:02:48;33;33;
69123;PMS5003;56232;53.384;-2.732;2023-04-15T05:05:14;41;41;
69123;PMS5003;56232;53.384;-2.732;2023-04-15T05:07:40;51;44;
69123;PMS5003;56232;53.384;-2.732;2023-04-15T05:10:06;40;37;
69123;PMS5003;56232;53.384;-2.732;2023-04-15T05:12:31;37;37;
69123;PMS5003;56232;53.384;-2.732;2023-04-15T05:14:57;40;36;
69123;PMS5003;56232;53.384;-2.732;2023-04-15T05:17:22;35;33;
69123;PMS5003;56232;53.384;-2.732;2023-04-15T05:19:47;33;31;
69123;PMS5003;56232;53.384;-2.732;2023-04-15T05:22:18;35;33;
69123;PMS5003;56232;53.384;-2.732;2023-04-15T05:24:39;39;38;
69123;PMS5003;56232;53.384;-2.732;2023-04-15T05:27:04;36;34;
69123;PMS5003;56232;53.384;-2.732;2023-04-15T05:29:30;42;38;
69123;PMS5003;56232;53.384;-2.732;2023-04-15T05:31:56;45;39;
69123;PMS5003;56232;53.384;-2.732;2023-04-15T05:34:21;40;40;
69123;PMS5003;56232;53.384;-2.732;2023-04-15T05:36:47;39;33;
69123;PMS5003;56232;53.384;-2.732;2023-04-15T05:39:12;36;34;
69123;PMS5003;56232;53.384;-2.732;2023-04-15T05:41:38;36;35;
69123;PMS5003;56232;53.384;-2.732;2023-04-15T05:44:04;38;34;
69123;PMS5003;56232;53.384;-2.732;2023-04-15T05:46:30;35;32;
69123;PMS5003;56232;53.384;-2.732;2023-04-15T05:48:55;34;34;
69123;PMS5003;56232;53.384;-2.732;2023-04-15T05:51:20;34;33;
69123;PMS5003;56232;53.384;-2.732;2023-04-15T05:53:45;34;32;
69123;PMS5003;56232;53.384;-2.732;2023-04-15T05:56:10;31;31;
69123;PMS5003;56232;53.384;-2.732;2023-04-15T05:58:36;33;32;
69123;PMS5003;56232;53.384;-2.732;2023-04-15T06:01:01;33;30;
69123;PMS5003;56232;53.384;-2.732;2023-04-15T06:03:26;35;34;
69123;PMS5003;56232;53.384;-2.732;2023-04-15T06:05:51;35;33;
69123;PMS5003;56232;53.384;-2.732;2023-04-15T06:08:17;36;34;
69123;PMS5003;56232;53.384;-2.732;2023-04-15T06:10:42;40;36;
69123;PMS5003;56232;53.384;-2.732;2023-04-15T06:13:08;36;34;
69123;PMS5003;56232;53.384;-2.732;2023-04-15T06:15:33;40;37;
69123;PMS5003;56232;53.384;-2.732;2023-04-15T06:17:59;55;45;
69123;PMS5003;56232;53.384;-2.732;2023-04-15T06:20:24;55;50;
69123;PMS5003;56232;53.384;-2.732;2023-04-15T06:22:49;48;42;
69123;PMS5003;56232;53.384;-2.732;2023-04-15T06:25:15;51;47;
69123;PMS5003;56232;53.384;-2.732;2023-04-15T06:27:40;61;57;
69123;PMS5003;56232;53.384;-2.732;2023-04-15T06:30:06;63;59;
69123;PMS5003;56232;53.384;-2.732;2023-04-15T06:32:31;62;59;
69123;PMS5003;56232;53.384;-2.732;2023-04-15T06:34:56;63;58;
69123;PMS5003;56232;53.384;-2.732;2023-04-15T06:37:21;69;64;
69123;PMS5003;56232;53.384;-2.732;2023-04-15T06:39:47;77;67;
69123;PMS5003;56232;53.384;-2.732;2023-04-15T06:42:12;62;57;
69123;PMS5003;56232;53.384;-2.732;2023-04-15T06:44:38;66;63;
69123;PMS5003;56232;53.384;-2.732;2023-04-15T06:47:03;58;54;
69123;PMS5003;56232;53.384;-2.732;2023-04-15T06:49:28;52;46;
69123;PMS5003;56232;53.384;-2.732;2023-04-15T06:51:54;52;48;
69123;PMS5003;56232;53.384;-2.732;2023-04-15T06:54:19;43;42;
69123;PMS5003;56232;53.384;-2.732;2023-04-15T06:56:44;46;46;
69123;PMS5003;56232;53.384;-2.732;2023-04-15T06:59:10;46;46;
69123;PMS5003;56232;53.384;-2.732;2023-04-15T07:01:35;39;37;
69123;PMS5003;56232;53.384;-2.732;2023-04-15T07:04:00;38;36;
69123;PMS5003;56232;53.384;-2.732;2023-04-15T07:06:26;30;30;
69123;PMS5003;56232;53.384;-2.732;2023-04-15T07:08:51;29;29;
69123;PMS5003;56232;53.384;-2.732;2023-04-15T07:11:16;30;30;
69123;PMS5003;56232;53.384;-2.732;2023-04-15T07:13:41;30;29;
69123;PMS5003;56232;53.384;-2.732;2023-04-15T07:16:06;32;29;
69123;PMS5003;56232;53.384;-2.732;2023-04-15T07:18:32;36;32;
69123;PMS5003;56232;53.384;-2.732;2023-04-15T07:20:58;42;38;
69123;PMS5003;56232;53.384;-2.732;2023-04-15T07:23:23;40;37;
69123;PMS5003;56232;53.384;-2.732;2023-04-15T07:25:48;42;37;
69123;PMS5003;56232;53.384;-2.732;2023-04-15T07:28:14;52;47;
69123;PMS5003;56232;53.384;-2.732;2023-04-15T07:30:39;58;52;
69123;PMS5003;56232;53.384;-2.732;2023-04-15T07:33:05;86;77;
69123;PMS5003;56232;53.384;-2.732;2023-04-15T07:35:30;59;54;
69123;PMS5003;56232;53.384;-2.732;2023-04-15T07:37:55;58;53;
69123;PMS5003;56232;53.384;-2.732;2023-04-15T07:40:21;51;49;
69123;PMS5003;56232;53.384;-2.732;2023-04-15T07:42:46;52;47;
69123;PMS5003;56232;53.384;-2.732;2023-04-15T07:45:12;37;34;
69123;PMS5003;56232;53.384;-2.732;2023-04-15T07:47:37;32;32;
69123;PMS5003;56232;53.384;-2.732;2023-04-15T07:50:03;49;44;
69123;PMS5003;56232;53.384;-2.732;2023-04-15T07:52:28;70;67;
69123;PMS5003;56232;53.384;-2.732;2023-04-15T07:54:54;97;89;
69123;PMS5003;56232;53.384;-2.732;2023-04-15T07:57:19;93;87;
69123;PMS5003;56232;53.384;-2.732;2023-04-15T07:59:44;80;75;
69123;PMS5003;56232;53.384;-2.732;2023-04-15T08:02:10;42;41;
69123;PMS5003;56232;53.384;-2.732;2023-04-15T08:04:35;37;35;
69123;PMS5003;56232;53.384;-2.732;2023-04-15T08:07:00;30;30;
69123;PMS5003;56232;53.384;-2.732;2023-04-15T08:09:26;21;20;
69123;PMS5003;56232;53.384;-2.732;2023-04-15T08:11:51;16;16;
69123;PMS5003;56232;53.384;-2.732;2023-04-15T08:14:16;13;13;
69123;PMS5003;56232;53.384;-2.732;2023-04-15T08:16:42;14;13;
69123;PMS5003;56232;53.384;-2.732;2023-04-15T08:19:08;10;10;
69123;PMS5003;56232;53.384;-2.732;2023-04-15T08:21:33;9;9;
69123;PMS5003;56232;53.384;-2.732;2023-04-15T08:23:59;6;6;
69123;PMS5003;56232;53.384;-2.732;2023-04-15T08:26:24;8;8;
69123;PMS5003;56232;53.384;-2.732;2023-04-15T08:28:50;6;6;
69123;PMS5003;56232;53.384;-2.732;2023-04-15T08:31:16;5;5;
69123;PMS5003;56232;53.384;-2.732;2023-04-15T08:33:41;6;6;
69123;PMS5003;56232;53.384;-2.732;2023-04-15T08:36:06;4;4;
69123;PMS5003;56232;53.384;-2.732;2023-04-15T08:38:32;4;3;
69123;PMS5003;56232;53.384;-2.732;2023-04-15T08:40:58;3;3;
69123;PMS5003;56232;53.384;-2.732;2023-04-15T08:43:25;3;3;
69123;PMS5003;56232;53.384;-2.732;2023-04-15T08:45:49;4;4;
69123;PMS5003;56232;53.384;-2.732;2023-04-15T08:48:14;3;3;
69123;PMS5003;56232;53.384;-2.732;2023-04-15T08:50:40;2;2;
69123;PMS5003;56232;53.384;-2.732;2023-04-15T08:53:05;4;3;
69123;PMS5003;56232;53.384;-2.732;2023-04-15T08:55:32;5;5;
69123;PMS5003;56232;53.384;-2.732;2023-04-15T08:57:56;4;4;
69123;PMS5003;56232;53.384;-2.732;2023-04-15T09:00:22;4;4;
69123;PMS5003;56232;53.384;-2.732;2023-04-15T09:02:47;4;4;
69123;PMS5003;56232;53.384;-2.732;2023-04-15T09:05:13;4;4;
69123;PMS5003;56232;53.384;-2.732;2023-04-15T09:07:38;5;5;
69123;PMS5003;56232;53.384;-2.732;2023-04-15T09:10:04;5;4;
69123;PMS5003;56232;53.384;-2.732;2023-04-15T09:12:29;5;5;
69123;PMS5003;56232;53.384;-2.732;2023-04-15T09:14:55;6;6;
69123;PMS5003;56232;53.384;-2.732;2023-04-15T09:17:20;8;8;
69123;PMS5003;56232;53.384;-2.732;2023-04-15T09:19:46;9;8;
69123;PMS5003;56232;53.384;-2.732;2023-04-15T09:22:12;7;7;
69123;PMS5003;56232;53.384;-2.732;2023-04-15T09:24:38;9;9;
69123;PMS5003;56232;53.384;-2.732;2023-04-15T09:27:03;5;5;
69123;PMS5003;56232;53.384;-2.732;2023-04-15T09:29:28;6;6;
69123;PMS5003;56232;53.384;-2.732;2023-04-15T09:31:54;7;6;
69123;PMS5003;56232;53.384;-2.732;2023-04-15T09:34:19;8;8;
69123;PMS5003;56232;53.384;-2.732;2023-04-15T09:39:11;5;5;
69123;PMS5003;56232;53.384;-2.732;2023-04-15T09:41:36;5;5;
69123;PMS5003;56232;53.384;-2.732;2023-04-15T09:44:02;7;7;
69123;PMS5003;56232;53.384;-2.732;2023-04-15T09:51:18;7;6;
69123;PMS5003;56232;53.384;-2.732;2023-04-15T09:53:44;6;6;
69123;PMS5003;56232;53.384;-2.732;2023-04-15T09:56:10;7;7;
69123;PMS5003;56232;53.384;-2.732;2023-04-15T09:58:35;9;8;
69123;PMS5003;56232;53.384;-2.732;2023-04-15T10:01:01;7;7;
69123;PMS5003;56232;53.384;-2.732;2023-04-15T10:03:26;6;6;
69123;PMS5003;56232;53.384;-2.732;2023-04-15T10:05:52;7;7;
69123;PMS5003;56232;53.384;-2.732;2023-04-15T10:08:18;7;7;
69123;PMS5003;56232;53.384;-2.732;2023-04-15T10:10:43;8;8;
69123;PMS5003;56232;53.384;-2.732;2023-04-15T10:13:09;8;8;
69123;PMS5003;56232;53.384;-2.732;2023-04-15T10:15:34;6;6;
69123;PMS5003;56232;53.384;-2.732;2023-04-15T10:17:59;8;8;
69123;PMS5003;56232;53.384;-2.732;2023-04-15T10:20:25;9;8;
69123;PMS5003;56232;53.384;-2.732;2023-04-15T10:22:50;7;7;
69123;PMS5003;56232;53.384;-2.732;2023-04-15T10:25:16;5;5;
69123;PMS5003;56232;53.384;-2.732;2023-04-15T10:27:42;7;7;
69123;PMS5003;56232;53.384;-2.732;2023-04-15T10:30:08;7;7;
69123;PMS5003;56232;53.384;-2.732;2023-04-15T10:32:33;8;6;
69123;PMS5003;56232;53.384;-2.732;2023-04-15T10:34:58;5;5;
69123;PMS5003;56232;53.384;-2.732;2023-04-15T10:39:50;7;7;
69123;PMS5003;56232;53.384;-2.732;2023-04-15T10:42:16;5;5;
69123;PMS5003;56232;53.384;-2.732;2023-04-15T10:44:41;7;6;
69123;PMS5003;56232;53.384;-2.732;2023-04-15T10:47:09;6;6;
69123;PMS5003;56232;53.384;-2.732;2023-04-15T10:49:32;7;7;
69123;PMS5003;56232;53.384;-2.732;2023-04-15T10:51:58;6;6;
69123;PMS5003;56232;53.384;-2.732;2023-04-15T10:56:50;7;7;
69123;PMS5003;56232;53.384;-2.732;2023-04-15T10:59:14;7;7;
69123;PMS5003;56232;53.384;-2.732;2023-04-15T11:04:05;7;7;
69123;PMS5003;56232;53.384;-2.732;2023-04-15T11:08:57;7;7;
69123;PMS5003;56232;53.384;-2.732;2023-04-15T11:11:22;8;7;
69123;PMS5003;56232;53.384;-2.732;2023-04-15T11:13:48;6;6;
69123;PMS5003;56232;53.384;-2.732;2023-04-15T11:16:13;10;9;
69123;PMS5003;56232;53.384;-2.732;2023-04-15T11:18:39;9;9;
69123;PMS5003;56232;53.384;-2.732;2023-04-15T11:21:05;7;7;
69123;PMS5003;56232;53.384;-2.732;2023-04-15T11:23:32;7;7;
69123;PMS5003;56232;53.384;-2.732;2023-04-15T11:25:56;9;9;
69123;PMS5003;56232;53.384;-2.732;2023-04-15T11:28:23;6;6;
69123;PMS5003;56232;53.384;-2.732;2023-04-15T11:30:47;5;5;
69123;PMS5003;56232;53.384;-2.732;2023-04-15T11:33:12;7;7;
69123;PMS5003;56232;53.384;-2.732;2023-04-15T11:35:39;8;7;
69123;PMS5003;56232;53.384;-2.732;2023-04-15T11:38:04;6;6;
69123;PMS5003;56232;53.384;-2.732;2023-04-15T11:40:29;6;6;
69123;PMS5003;56232;53.384;-2.732;2023-04-15T11:45:20;7;6;
69123;PMS5003;56232;53.384;-2.732;2023-04-15T11:47:46;6;6;
69123;PMS5003;56232;53.384;-2.732;2023-04-15T11:50:17;7;7;
69123;PMS5003;56232;53.384;-2.732;2023-04-15T11:52:37;8;8;
69123;PMS5003;56232;53.384;-2.732;2023-04-15T11:55:03;6;6;
69123;PMS5003;56232;53.384;-2.732;2023-04-15T11:57:30;8;7;
69123;PMS5003;56232;53.384;-2.732;2023-04-15T11:59:54;6;6;
69123;PMS5003;56232;53.384;-2.732;2023-04-15T12:02:19;6;6;
69123;PMS5003;56232;53.384;-2.732;2023-04-15T12:04:45;6;5;
69123;PMS5003;56232;53.384;-2.732;2023-04-15T12:07:11;5;5;
69123;PMS5003;56232;53.384;-2.732;2023-04-15T12:09:36;6;6;
69123;PMS5003;56232;53.384;-2.732;2023-04-15T12:12:02;6;6;
69123;PMS5003;56232;53.384;-2.732;2023-04-15T12:14:28;8;7;
69123;PMS5003;56232;53.384;-2.732;2023-04-15T12:16:54;6;6;
69123;PMS5003;56232;53.384;-2.732;2023-04-15T12:19:21;7;7;
69123;PMS5003;56232;53.384;-2.732;2023-04-15T12:21:45;6;6;
69123;PMS5003;56232;53.384;-2.732;2023-04-15T12:24:15;6;6;
69123;PMS5003;56232;53.384;-2.732;2023-04-15T12:26:36;4;4;
69123;PMS5003;56232;53.384;-2.732;2023-04-15T12:29:01;5;5;
69123;PMS5003;56232;53.384;-2.732;2023-04-15T12:31:27;5;4;
69123;PMS5003;56232;53.384;-2.732;2023-04-15T12:33:53;6;6;
69123;PMS5003;56232;53.384;-2.732;2023-04-15T12:36:18;5;5;
69123;PMS5003;56232;53.384;-2.732;2023-04-15T12:38:43;4;4;
69123;PMS5003;56232;53.384;-2.732;2023-04-15T12:41:10;4;4;
69123;PMS5003;56232;53.384;-2.732;2023-04-15T12:43:34;5;5;
69123;PMS5003;56232;53.384;-2.732;2023-04-15T12:46:00;8;7;
69123;PMS5003;56232;53.384;-2.732;2023-04-15T12:48:26;6;6;
69123;PMS5003;56232;53.384;-2.732;2023-04-15T12:50:51;6;6;
69123;PMS5003;56232;53.384;-2.732;2023-04-15T12:53:17;8;8;
69123;PMS5003;56232;53.384;-2.732;2023-04-15T12:55:42;5;5;
69123;PMS5003;56232;53.384;-2.732;2023-04-15T12:58:08;7;7;
69123;PMS5003;56232;53.384;-2.732;2023-04-15T13:00:34;6;6;
69123;PMS5003;56232;53.384;-2.732;2023-04-15T13:02:59;10;8;
69123;PMS5003;56232;53.384;-2.732;2023-04-15T13:05:25;6;6;
69123;PMS5003;56232;53.384;-2.732;2023-04-15T13:07:51;6;6;
69123;PMS5003;56232;53.384;-2.732;2023-04-15T13:10:16;7;7;
69123;PMS5003;56232;53.384;-2.732;2023-04-15T13:12:42;8;7;
69123;PMS5003;56232;53.384;-2.732;2023-04-15T13:15:08;7;7;
69123;PMS5003;56232;53.384;-2.732;2023-04-15T13:17:33;6;6;
69123;PMS5003;56232;53.384;-2.732;2023-04-15T13:19:58;6;6;
69123;PMS5003;56232;53.384;-2.732;2023-04-15T13:22:24;8;8;
69123;PMS5003;56232;53.384;-2.732;2023-04-15T13:24:50;9;9;
69123;PMS5003;56232;53.384;-2.732;2023-04-15T13:27:15;7;7;
69123;PMS5003;56232;53.384;-2.732;2023-04-15T13:29:41;8;8;
69123;PMS5003;56232;53.384;-2.732;2023-04-15T13:32:07;11;10;
69123;PMS5003;56232;53.384;-2.732;2023-04-15T13:34:32;11;10;
69123;PMS5003;56232;53.384;-2.732;2023-04-15T13:36:58;7;7;
69123;PMS5003;56232;53.384;-2.732;2023-04-15T13:39:23;6;6;
69123;PMS5003;56232;53.384;-2.732;2023-04-15T13:41:49;7;6;
69123;PMS5003;56232;53.384;-2.732;2023-04-15T13:44:14;7;7;
69123;PMS5003;56232;53.384;-2.732;2023-04-15T13:46:40;7;7;
69123;PMS5003;56232;53.384;-2.732;2023-04-15T13:49:06;8;8;
69123;PMS5003;56232;53.384;-2.732;2023-04-15T13:51:31;6;6;
69123;PMS5003;56232;53.384;-2.732;2023-04-15T13:53:57;6;6;
69123;PMS5003;56232;53.384;-2.732;2023-04-15T13:56:23;6;6;
69123;PMS5003;56232;53.384;-2.732;2023-04-15T13:58:48;7;7;
69123;PMS5003;56232;53.384;-2.732;2023-04-15T14:01:14;5;5;
69123;PMS5003;56232;53.384;-2.732;2023-04-15T14:03:39;6;6;
69123;PMS5003;56232;53.384;-2.732;2023-04-15T14:06:05;7;6;
69123;PMS5003;56232;53.384;-2.732;2023-04-15T14:08:30;23;22;
69123;PMS5003;56232;53.384;-2.732;2023-04-15T14:10:56;9;9;
69123;PMS5003;56232;53.384;-2.732;2023-04-15T14:13:22;5;5;
69123;PMS5003;56232;53.384;-2.732;2023-04-15T14:15:47;5;4;
69123;PMS5003;56232;53.384;-2.732;2023-04-15T14:18:13;4;4;
69123;PMS5003;56232;53.384;-2.732;2023-04-15T14:20:39;8;8;
69123;PMS5003;56232;53.384;-2.732;2023-04-15T14:23:04;6;6;
69123;PMS5003;56232;53.384;-2.732;2023-04-15T14:25:30;6;6;
69123;PMS5003;56232;53.384;-2.732;2023-04-15T14:27:55;5;5;
69123;PMS5003;56232;53.384;-2.732;2023-04-15T14:30:21;6;5;
69123;PMS5003;56232;53.384;-2.732;2023-04-15T14:32:46;5;5;
69123;PMS5003;56232;53.384;-2.732;2023-04-15T14:35:12;5;5;
69123;PMS5003;56232;53.384;-2.732;2023-04-15T14:37:37;5;5;
69123;PMS5003;56232;53.384;-2.732;2023-04-15T14:40:03;6;6;
69123;PMS5003;56232;53.384;-2.732;2023-04-15T14:42:29;5;5;
69123;PMS5003;56232;53.384;-2.732;2023-04-15T14:44:54;5;5;
69123;PMS5003;56232;53.384;-2.732;2023-04-15T14:47:20;4;4;
69123;PMS5003;56232;53.384;-2.732;2023-04-15T14:49:45;6;6;
69123;PMS5003;56232;53.384;-2.732;2023-04-15T14:52:11;7;6;
69123;PMS5003;56232;53.384;-2.732;2023-04-15T14:54:37;4;4;
69123;PMS5003;56232;53.384;-2.732;2023-04-15T14:57:02;6;5;
69123;PMS5003;56232;53.384;-2.732;2023-04-15T14:59:28;4;4;
69123;PMS5003;56232;53.384;-2.732;2023-04-15T15:01:53;6;6;
69123;PMS5003;56232;53.384;-2.732;2023-04-15T15:04:19;5;4;
69123;PMS5003;56232;53.384;-2.732;2023-04-15T15:06:44;6;6;
69123;PMS5003;56232;53.384;-2.732;2023-04-15T15:09:10;5;5;
69123;PMS5003;56232;53.384;-2.732;2023-04-15T15:11:36;7;7;
69123;PMS5003;56232;53.384;-2.732;2023-04-15T15:14:01;7;7;
69123;PMS5003;56232;53.384;-2.732;2023-04-15T15:16:27;9;9;
69123;PMS5003;56232;53.384;-2.732;2023-04-15T15:18:52;5;5;
69123;PMS5003;56232;53.384;-2.732;2023-04-15T15:21:18;5;5;
69123;PMS5003;56232;53.384;-2.732;2023-04-15T15:23:44;7;6;
69123;PMS5003;56232;53.384;-2.732;2023-04-15T15:26:11;6;5;
69123;PMS5003;56232;53.384;-2.732;2023-04-15T15:28:35;5;5;
69123;PMS5003;56232;53.384;-2.732;2023-04-15T15:31:00;6;5;
69123;PMS5003;56232;53.384;-2.732;2023-04-15T15:33:26;6;6;
69123;PMS5003;56232;53.384;-2.732;2023-04-15T15:35:51;7;7;
69123;PMS5003;56232;53.384;-2.732;2023-04-15T15:38:17;8;8;
69123;PMS5003;56232;53.384;-2.732;2023-04-15T15:40:42;7;6;
69123;PMS5003;56232;53.384;-2.732;2023-04-15T15:43:08;6;5;
69123;PMS5003;56232;53.384;-2.732;2023-04-15T15:45:34;9;9;
69123;PMS5003;56232;53.384;-2.732;2023-04-15T15:48:00;11;11;
69123;PMS5003;56232;53.384;-2.732;2023-04-15T15:50:30;12;12;
69123;PMS5003;56232;53.384;-2.732;2023-04-15T15:52:50;9;9;
69123;PMS5003;56232;53.384;-2.732;2023-04-15T15:55:16;14;14;
69123;PMS5003;56232;53.384;-2.732;2023-04-15T15:57:42;8;8;
69123;PMS5003;56232;53.384;-2.732;2023-04-15T16:00:07;16;16;
69123;PMS5003;56232;53.384;-2.732;2023-04-15T16:02:32;13;13;
69123;PMS5003;56232;53.384;-2.732;2023-04-15T16:04:58;8;8;
69123;PMS5003;56232;53.384;-2.732;2023-04-15T16:07:24;17;17;
69123;PMS5003;56232;53.384;-2.732;2023-04-15T16:09:49;18;18;
69123;PMS5003;56232;53.384;-2.732;2023-04-15T16:12:14;19;18;
69123;PMS5003;56232;53.384;-2.732;2023-04-15T16:14:40;27;25;
69123;PMS5003;56232;53.384;-2.732;2023-04-15T16:17:05;21;20;
69123;PMS5003;56232;53.384;-2.732;2023-04-15T16:19:31;20;20;
69123;PMS5003;56232;53.384;-2.732;2023-04-15T16:21:56;19;19;
69123;PMS5003;56232;53.384;-2.732;2023-04-15T16:24:22;16;16;